Lumby, Canada
Current Conditions -  °F | °C
As of 11:00 AM on Thursday 30 Oct 2014 (Local Time) from CYLW Reporting Station
Broken Clouds Broken Clouds  
Wind Chill: 50°   Ceiling: 5500
Heat Index: 50°   Visibility: 9mi
Dew Point: 43°   Wind: 2mph
Humidity: 76%   Direction: NA
Pressure: 30.04"   Gusts: NA
Location:  50.25°N, 118.97°W
Report Text: CYLW 301800Z AUTO VRB02KT 9SM BKN055 BKN079 10/06 A3004 RMK SLP182
Loading
Personal Weather Stations






























Interactive Weather Map
Tropical Storm Tracking
New forecast layout! Learn more

10-Day Weather Forecast

Advertisements
Track Severe Weather on mobile